createdAt,value
2018-09-22T00:00:35.303Z,20.87
2018-09-22T00:03:06.432Z,20.77
2018-09-22T00:05:36.844Z,21.17
2018-09-22T00:08:07.008Z,46.13
2018-09-22T00:10:37.136Z,38.53
2018-09-22T00:13:07.352Z,30.50
2018-09-22T00:15:37.481Z,27.20
2018-09-22T00:18:07.800Z,28.03
2018-09-22T00:20:37.888Z,27.00
2018-09-22T00:23:08.029Z,26.57
2018-09-22T00:25:39.026Z,24.50
2018-09-22T00:28:09.168Z,20.87
2018-09-22T00:30:39.239Z,21.13
2018-09-22T00:33:09.376Z,19.77
2018-09-22T00:35:39.464Z,22.70
2018-09-22T00:38:09.556Z,20.77
2018-09-22T00:40:39.956Z,22.20
2018-09-22T00:43:10.069Z,20.83
2018-09-22T00:45:40.168Z,22.70
2018-09-22T00:48:10.287Z,21.73
2018-09-22T00:50:41.237Z,21.67
2018-09-22T00:53:11.344Z,21.70
2018-09-22T00:55:41.440Z,20.83
2018-09-22T00:58:11.536Z,20.23
2018-09-22T01:00:41.649Z,21.83
2018-09-22T01:03:11.776Z,21.77
2018-09-22T01:05:41.956Z,20.93
2018-09-22T01:08:12.089Z,20.40
2018-09-22T01:10:42.244Z,20.43
2018-09-22T01:13:12.552Z,20.63
2018-09-22T01:15:42.706Z,19.10
2018-09-22T01:18:12.824Z,19.00
2018-09-22T01:20:42.936Z,18.90
2018-09-22T01:23:13.056Z,20.07
2018-09-22T01:25:43.155Z,18.13
2018-09-22T01:28:13.240Z,19.00
2018-09-22T01:30:43.344Z,19.63
2018-09-22T01:33:13.442Z,18.40
2018-09-22T01:35:43.544Z,18.53
2018-09-22T01:38:13.626Z,18.83
2018-09-22T01:40:44.012Z,18.90
2018-09-22T01:43:14.211Z,18.50
2018-09-22T01:45:44.385Z,18.33
2018-09-22T01:48:14.556Z,17.60
2018-09-22T01:50:44.660Z,17.33
2018-09-22T01:53:14.828Z,17.70
2018-09-22T01:55:44.947Z,17.50
2018-09-22T01:58:15.044Z,16.63
2018-09-22T02:00:45.224Z,17.83
2018-09-22T02:03:15.299Z,18.50
2018-09-22T02:05:46.068Z,18.47
2018-09-22T02:08:16.200Z,18.77
2018-09-22T02:10:46.344Z,18.60
2018-09-22T02:13:16.532Z,19.23
2018-09-22T02:15:46.667Z,19.73
2018-09-22T02:18:16.760Z,17.87
2018-09-22T02:20:46.878Z,19.37
2018-09-22T02:23:16.944Z,19.73
2018-09-22T02:25:47.072Z,19.70
2018-09-22T02:28:17.152Z,19.83
2018-09-22T02:30:47.252Z,19.23
2018-09-22T02:33:17.380Z,19.57
2018-09-22T02:35:47.475Z,19.77
2018-09-22T02:38:17.642Z,19.63
2018-09-22T02:40:47.756Z,20.53
2018-09-22T02:43:17.858Z,18.77
2018-09-22T02:45:48.000Z,19.10
2018-09-22T02:48:18.092Z,19.47
2018-09-22T02:50:48.181Z,19.03
2018-09-22T02:53:18.281Z,19.40
2018-09-22T02:55:48.390Z,19.40
2018-09-22T02:58:25.072Z,10.13
2018-09-22T03:00:55.172Z,5.07
2018-09-22T03:03:25.248Z,2.30
2018-09-22T03:05:55.328Z,1.80
2018-09-22T03:08:25.435Z,1.63
2018-09-22T03:10:55.525Z,3.87
2018-09-22T03:13:25.613Z,1.50
2018-09-22T03:15:55.708Z,1.40
2018-09-22T03:18:25.806Z,1.20
2018-09-22T03:20:55.873Z,1.00
2018-09-22T03:23:26.030Z,1.13
2018-09-22T03:25:56.109Z,1.10
2018-09-22T03:28:26.180Z,1.17
2018-09-22T03:31:00.321Z,1.20
2018-09-22T03:33:30.425Z,0.90
2018-09-22T03:36:00.592Z,1.00
2018-09-22T03:38:30.656Z,1.10
2018-09-22T03:41:00.768Z,1.20
2018-09-22T03:43:30.873Z,0.87
2018-09-22T03:46:01.072Z,1.10
2018-09-22T03:48:31.456Z,1.57
2018-09-22T03:51:01.627Z,0.90
2018-09-22T03:53:31.936Z,1.30
2018-09-22T03:56:02.048Z,0.87
2018-09-22T03:58:32.201Z,1.10
2018-09-22T04:01:02.312Z,1.03
2018-09-22T04:03:32.376Z,1.10
2018-09-22T04:06:02.503Z,1.10
2018-09-22T04:08:32.600Z,0.90
2018-09-22T04:11:02.716Z,0.70
2018-09-22T04:13:32.816Z,0.60
2018-09-22T04:16:02.985Z,0.63
2018-09-22T04:18:33.072Z,0.80
2018-09-22T04:21:03.421Z,0.80
2018-09-22T04:23:33.568Z,1.10
2018-09-22T04:26:03.673Z,0.73
2018-09-22T04:28:33.732Z,0.70
2018-09-22T04:31:04.056Z,0.70
2018-09-22T04:33:34.176Z,0.50
2018-09-22T04:36:04.326Z,0.60
2018-09-22T04:38:34.438Z,0.93
2018-09-22T04:41:04.601Z,0.80
2018-09-22T04:43:34.938Z,0.60
2018-09-22T04:46:05.068Z,0.30
2018-09-22T04:48:35.140Z,0.40
2018-09-22T04:51:05.257Z,0.57
2018-09-22T04:53:35.340Z,0.60
2018-09-22T04:56:05.481Z,0.53
2018-09-22T04:58:35.548Z,0.40
2018-09-22T05:01:05.668Z,0.40
2018-09-22T05:03:35.740Z,0.57
2018-09-22T05:06:05.932Z,0.50
2018-09-22T05:08:36.031Z,0.60
2018-09-22T05:11:06.131Z,0.37
2018-09-22T05:13:36.216Z,0.60
2018-09-22T05:16:06.648Z,0.60
2018-09-22T05:18:36.757Z,0.60
2018-09-22T05:21:06.917Z,0.60
2018-09-22T05:23:37.012Z,0.80
2018-09-22T05:26:07.373Z,0.80
2018-09-22T05:28:37.580Z,0.50
2018-09-22T05:31:08.212Z,0.70
2018-09-22T05:33:38.463Z,0.73
2018-09-22T05:36:08.580Z,0.80
2018-09-22T05:38:38.890Z,1.00
2018-09-22T05:41:08.985Z,0.90
2018-09-22T05:43:39.083Z,0.70
2018-09-22T05:46:09.175Z,0.90
2018-09-22T05:48:39.240Z,0.87
2018-09-22T05:51:09.396Z,1.10
2018-09-22T05:53:39.548Z,0.70
2018-09-22T05:56:09.620Z,1.00
2018-09-22T05:58:39.718Z,1.20
2018-09-22T06:01:09.812Z,1.10
2018-09-22T06:03:39.929Z,0.87
2018-09-22T06:06:10.008Z,0.93
2018-09-22T06:08:40.100Z,1.20
2018-09-22T06:11:10.272Z,1.00
2018-09-22T06:13:40.436Z,1.10
2018-09-22T06:16:10.544Z,1.00
2018-09-22T06:18:40.681Z,1.50
2018-09-22T06:21:10.824Z,1.63
2018-09-22T06:23:40.952Z,1.37
2018-09-22T06:26:11.036Z,1.30
2018-09-22T06:28:41.183Z,1.50
2018-09-22T06:31:11.253Z,1.77
2018-09-22T06:33:41.354Z,1.30
2018-09-22T06:36:11.432Z,1.20
2018-09-22T06:38:41.569Z,1.00
2018-09-22T06:41:11.657Z,1.37
2018-09-22T06:43:41.737Z,1.20
2018-09-22T06:46:11.884Z,1.40
2018-09-22T06:48:41.912Z,1.47
2018-09-22T06:51:12.028Z,1.17
2018-09-22T06:53:42.160Z,1.20
2018-09-22T06:56:12.237Z,1.10
2018-09-22T06:58:42.316Z,1.50
2018-09-22T07:01:12.382Z,1.60
2018-09-22T07:03:42.498Z,1.30
2018-09-22T07:06:12.682Z,1.40
2018-09-22T07:08:42.754Z,1.23
2018-09-22T07:11:12.856Z,1.20
2018-09-22T07:13:43.031Z,1.20
2018-09-22T07:16:13.084Z,1.20
2018-09-22T07:18:43.180Z,1.60
2018-09-22T07:21:13.265Z,1.90
2018-09-22T07:23:43.369Z,1.97
2018-09-22T07:26:13.493Z,1.97
2018-09-22T07:28:43.580Z,1.70
2018-09-22T07:31:13.672Z,2.10
2018-09-22T07:33:43.787Z,1.83
2018-09-22T07:36:13.869Z,1.97
2018-09-22T07:38:43.946Z,1.80
2018-09-22T07:41:14.080Z,1.90
2018-09-22T07:43:44.186Z,2.00
2018-09-22T07:52:48.569Z,2.10
2018-09-22T07:55:18.672Z,2.37
2018-09-22T07:57:48.780Z,1.80
2018-09-22T08:00:18.928Z,1.70
2018-09-22T08:02:49.089Z,1.90
2018-09-22T08:05:19.181Z,2.00
2018-09-22T08:07:49.604Z,2.17
2018-09-22T08:10:19.708Z,1.80
2018-09-22T08:12:49.816Z,2.20
2018-09-22T08:15:19.944Z,2.20
2018-09-22T08:17:50.037Z,2.10
2018-09-22T08:20:20.139Z,2.10
2018-09-22T08:22:50.252Z,2.23
2018-09-22T08:25:20.480Z,2.10
2018-09-22T08:27:50.493Z,4.83
2018-09-22T08:30:20.605Z,3.23
2018-09-22T08:32:50.750Z,2.30
2018-09-22T08:35:20.883Z,2.07
2018-09-22T08:37:50.986Z,2.10
2018-09-22T08:40:21.101Z,2.20
2018-09-22T08:42:51.248Z,2.20
2018-09-22T08:45:21.353Z,2.50
2018-09-22T08:47:51.466Z,2.70
2018-09-22T08:50:21.581Z,2.60
2018-09-22T08:52:52.085Z,2.60
2018-09-22T08:55:22.177Z,2.50
2018-09-22T08:57:52.289Z,2.60
2018-09-22T09:00:22.401Z,2.60
2018-09-22T09:02:52.471Z,2.50
2018-09-22T09:05:22.566Z,2.70
2018-09-22T09:07:52.680Z,2.90
2018-09-22T09:10:22.752Z,2.63
2018-09-22T09:12:52.868Z,3.20
2018-09-22T09:15:22.997Z,3.37
2018-09-22T09:17:53.228Z,3.10
2018-09-22T09:20:23.336Z,3.00
2018-09-22T09:22:53.457Z,3.50
2018-09-22T09:25:23.720Z,3.30
2018-09-22T09:27:53.774Z,3.20
2018-09-22T09:30:24.025Z,2.90
2018-09-22T09:32:54.125Z,2.97
2018-09-22T09:35:24.249Z,2.93
2018-09-22T09:37:54.345Z,3.00
2018-09-22T09:40:24.508Z,3.40
2018-09-22T09:42:54.708Z,3.17
2018-09-22T09:45:24.828Z,3.20
2018-09-22T09:47:54.941Z,3.37
2018-09-22T09:50:25.040Z,3.00
2018-09-22T09:52:55.170Z,3.13
2018-09-22T09:55:25.686Z,3.37
2018-09-22T09:57:55.788Z,3.33
2018-09-22T10:00:31.056Z,3.73
2018-09-22T10:03:01.144Z,3.03
2018-09-22T10:05:31.733Z,3.37
2018-09-22T10:08:01.866Z,3.70
2018-09-22T10:10:31.980Z,3.90
2018-09-22T10:13:02.068Z,4.53
2018-09-22T10:15:32.317Z,4.40
2018-09-22T10:18:02.414Z,4.50
2018-09-22T10:20:32.553Z,4.63
2018-09-22T10:23:02.653Z,4.87
2018-09-22T10:25:32.798Z,4.97
2018-09-22T10:28:02.927Z,3.67
2018-09-22T10:30:33.089Z,3.73
2018-09-22T10:33:03.224Z,3.70
2018-09-22T10:35:33.349Z,3.87
2018-09-22T10:38:03.440Z,3.37
2018-09-22T10:40:33.542Z,3.50
2018-09-22T10:43:03.680Z,3.23
2018-09-22T10:45:33.796Z,3.30
2018-09-22T10:48:03.944Z,3.00
2018-09-22T10:50:34.036Z,2.80
2018-09-22T10:53:04.272Z,3.17
2018-09-22T10:55:34.286Z,3.53
2018-09-22T10:58:04.389Z,3.70
2018-09-22T11:00:34.480Z,3.53
2018-09-22T11:03:04.680Z,3.50
2018-09-22T11:05:34.767Z,3.33
2018-09-22T11:08:04.885Z,3.60
2018-09-22T11:10:34.968Z,3.33
2018-09-22T11:13:05.089Z,3.90
2018-09-22T11:15:35.204Z,3.83
2018-09-22T11:18:05.340Z,3.70
2018-09-22T11:20:35.496Z,3.30
2018-09-22T11:23:05.697Z,3.10
2018-09-22T11:25:35.864Z,2.90
2018-09-22T11:28:06.052Z,54.13
2018-09-22T11:30:36.158Z,7.20
2018-09-22T11:33:06.277Z,13.67
2018-09-22T11:35:36.424Z,22.33
2018-09-22T11:38:06.843Z,6.20
2018-09-22T11:40:36.940Z,22.07
2018-09-22T11:43:07.105Z,12.07
2018-09-22T11:45:37.228Z,4.80
2018-09-22T11:48:07.335Z,2.80
2018-09-22T11:50:37.439Z,3.37
2018-09-22T11:53:07.569Z,5.93
2018-09-22T11:55:37.693Z,4.90
2018-09-22T11:58:07.784Z,4.73
2018-09-22T12:00:37.889Z,4.23
2018-09-22T12:03:08.110Z,4.50
2018-09-22T12:05:38.200Z,3.30
2018-09-22T12:08:08.369Z,3.00
2018-09-22T12:10:38.472Z,2.90
2018-09-22T12:13:08.626Z,6.87
2018-09-22T12:15:38.729Z,28.20
2018-09-22T12:18:09.111Z,11.87
2018-09-22T12:20:39.190Z,4.10
2018-09-22T12:23:09.288Z,2.93
2018-09-22T12:25:39.401Z,3.37
2018-09-22T12:28:09.516Z,2.90
2018-09-22T12:30:39.619Z,2.93
2018-09-22T12:33:09.693Z,3.67
2018-09-22T12:35:39.845Z,3.33
2018-09-22T12:38:09.936Z,4.13
2018-09-22T12:40:40.061Z,2.33
2018-09-22T12:43:10.172Z,2.47
2018-09-22T12:45:40.325Z,2.70
2018-09-22T12:48:10.441Z,2.80
2018-09-22T12:50:40.545Z,2.67
2018-09-22T12:53:10.650Z,2.90
2018-09-22T12:55:40.760Z,3.40
2018-09-22T12:58:10.885Z,4.10
2018-09-22T13:00:40.989Z,3.07
2018-09-22T13:03:12.875Z,3.50
2018-09-22T13:05:42.980Z,4.80
2018-09-22T13:08:13.112Z,3.60
2018-09-22T13:10:43.222Z,4.50
2018-09-22T13:13:13.332Z,6.37
2018-09-22T13:15:43.472Z,5.33
2018-09-22T13:18:13.600Z,3.20
2018-09-22T13:20:43.720Z,2.70
2018-09-22T13:23:13.840Z,3.30
2018-09-22T13:25:43.949Z,3.07
2018-09-22T13:28:14.066Z,2.80
2018-09-22T13:30:44.169Z,2.87
2018-09-22T13:33:14.289Z,3.00
2018-09-22T13:35:44.441Z,3.00
2018-09-22T13:38:14.549Z,3.17
2018-09-22T13:40:44.655Z,3.00
2018-09-22T13:43:14.741Z,4.43
2018-09-22T13:45:44.842Z,3.53
2018-09-22T13:48:14.920Z,3.20
2018-09-22T13:50:45.095Z,3.07
2018-09-22T13:53:15.209Z,2.73
2018-09-22T13:55:45.332Z,3.10
2018-09-22T13:58:15.484Z,3.30
2018-09-22T14:00:45.584Z,3.03
2018-09-22T14:03:15.700Z,3.10
2018-09-22T14:05:45.817Z,3.03
2018-09-22T14:08:15.960Z,3.10
2018-09-22T14:10:46.060Z,3.70
2018-09-22T14:13:16.185Z,3.57
2018-09-22T14:15:46.277Z,3.90
2018-09-22T14:18:16.401Z,3.40
2018-09-22T14:20:46.508Z,3.60
2018-09-22T14:23:16.598Z,4.07
2018-09-22T14:25:47.016Z,3.93
2018-09-22T14:28:17.121Z,4.10
2018-09-22T14:30:47.232Z,3.70
2018-09-22T14:33:17.312Z,3.50
2018-09-22T14:35:47.453Z,3.93
2018-09-22T14:38:17.565Z,4.20
2018-09-22T14:40:47.668Z,3.67
2018-09-22T14:43:17.809Z,3.90
2018-09-22T14:45:47.916Z,3.40
2018-09-22T14:48:18.017Z,3.43
2018-09-22T14:50:48.135Z,3.90
2018-09-22T14:53:18.360Z,3.40
2018-09-22T14:55:48.426Z,3.20
2018-09-22T14:58:18.565Z,3.17
2018-09-22T15:00:48.673Z,3.60
2018-09-22T15:03:18.768Z,3.40
2018-09-22T15:05:48.962Z,3.40
2018-09-22T15:08:19.125Z,3.30
2018-09-22T15:10:49.237Z,3.60
2018-09-22T15:13:19.333Z,3.83
2018-09-22T15:15:49.474Z,3.50
2018-09-22T15:18:19.584Z,3.60
2018-09-22T15:20:49.653Z,3.10
2018-09-22T15:23:19.759Z,3.20
2018-09-22T15:25:49.919Z,3.37
2018-09-22T15:28:20.012Z,3.20
2018-09-22T15:30:50.097Z,3.17
2018-09-22T15:33:20.185Z,3.40
2018-09-22T15:35:50.298Z,3.93
2018-09-22T15:38:20.420Z,3.60
2018-09-22T15:40:50.503Z,3.90
2018-09-22T15:43:20.759Z,3.47
2018-09-22T15:45:50.837Z,3.47
2018-09-22T15:48:21.121Z,4.00
2018-09-22T15:50:51.112Z,3.37
2018-09-22T15:53:21.248Z,2.97
2018-09-22T15:55:51.317Z,2.83
2018-09-22T15:58:21.441Z,3.27
2018-09-22T16:00:51.564Z,3.70
2018-09-22T16:03:21.653Z,3.80
2018-09-22T16:05:51.752Z,3.80
2018-09-22T16:08:21.869Z,4.00
2018-09-22T16:10:52.056Z,3.90
2018-09-22T16:13:22.153Z,4.13
2018-09-22T16:15:52.283Z,3.87
2018-09-22T16:18:22.340Z,4.20
2018-09-22T16:20:52.485Z,4.70
2018-09-22T16:23:22.592Z,4.77
2018-09-22T16:25:52.706Z,4.90
2018-09-22T16:28:22.799Z,5.00
2018-09-22T16:30:52.915Z,4.77
2018-09-22T16:33:23.103Z,5.23
2018-09-22T16:35:53.203Z,5.43
2018-09-22T16:38:23.315Z,5.37
2018-09-22T16:40:53.508Z,5.13
2018-09-22T16:43:23.667Z,5.00
2018-09-22T16:45:53.773Z,4.53
2018-09-22T16:48:23.889Z,5.30
2018-09-22T16:50:54.025Z,5.27
2018-09-22T16:53:24.118Z,4.77
2018-09-22T16:55:54.383Z,5.13
2018-09-22T16:58:24.529Z,4.90
2018-09-22T17:00:54.593Z,5.33
2018-09-22T17:03:24.695Z,5.30
2018-09-22T17:05:54.828Z,5.10
2018-09-22T17:08:24.913Z,5.20
2018-09-22T17:10:55.089Z,5.40
2018-09-22T17:13:25.200Z,5.40
2018-09-22T17:15:55.339Z,5.53
2018-09-22T17:18:25.449Z,5.63
2018-09-22T17:20:55.620Z,5.40
2018-09-22T17:23:26.045Z,5.63
2018-09-22T17:25:56.235Z,5.70
2018-09-22T17:28:26.408Z,5.90
2018-09-22T17:30:56.556Z,6.07
2018-09-22T17:33:26.679Z,12.27
2018-09-22T17:35:56.856Z,19.47
2018-09-22T17:38:26.956Z,10.77
2018-09-22T17:40:57.924Z,25.53
2018-09-22T17:43:28.225Z,16.93
2018-09-22T17:45:58.542Z,10.20
2018-09-22T17:48:28.664Z,27.93
2018-09-22T17:50:58.829Z,18.30
2018-09-22T17:53:29.011Z,8.73
2018-09-22T17:55:59.116Z,9.10
2018-09-22T17:58:29.252Z,4.60
2018-09-22T18:00:59.368Z,4.13
2018-09-22T18:03:29.461Z,3.90
2018-09-22T18:05:59.577Z,4.20
2018-09-22T18:08:29.873Z,4.63
2018-09-22T18:11:02.268Z,4.83
2018-09-22T18:13:32.357Z,6.70
2018-09-22T18:16:02.508Z,6.73
2018-09-22T18:18:32.601Z,4.73
2018-09-22T18:21:02.697Z,4.80
2018-09-22T18:23:32.798Z,18.47
2018-09-22T18:26:03.012Z,35.63
2018-09-22T18:28:33.176Z,21.23
2018-09-22T18:31:05.063Z,7.00
2018-09-22T18:33:35.140Z,8.10
2018-09-22T18:36:05.249Z,6.43
2018-09-22T18:38:35.435Z,5.90
2018-09-22T18:41:05.608Z,6.47
2018-09-22T18:43:36.021Z,5.23
2018-09-22T18:46:06.132Z,8.50
2018-09-22T18:48:36.238Z,7.60
2018-09-22T18:51:06.396Z,8.27
2018-09-22T18:53:36.500Z,6.27
2018-09-22T18:56:06.628Z,6.83
2018-09-22T18:58:36.755Z,7.00
2018-09-22T19:01:07.159Z,7.80
2018-09-22T19:03:37.270Z,7.73
2018-09-22T19:06:07.701Z,8.43
2018-09-22T19:08:37.787Z,40.73
2018-09-22T19:11:07.557Z,30.47
2018-09-22T19:13:42.209Z,17.43
2018-09-22T19:16:23.019Z,8.07
2018-09-22T19:18:59.696Z,6.20
2018-09-22T19:21:36.213Z,7.43
2018-09-22T19:24:13.676Z,8.70
2018-09-22T19:26:46.624Z,8.10
2018-09-22T19:29:21.869Z,7.70
2018-09-22T19:31:55.129Z,7.73
2018-09-22T19:34:29.860Z,11.83
2018-09-22T19:37:03.205Z,26.67
2018-09-22T19:39:38.912Z,60.73
2018-09-22T19:42:15.824Z,10.53
2018-09-22T19:45:16.353Z,10.00
2018-09-22T19:47:50.046Z,6.70
2018-09-22T19:50:26.410Z,6.60
2018-09-22T19:52:56.591Z,6.07
2018-09-22T19:55:26.688Z,7.07
2018-09-22T19:57:56.818Z,7.67
2018-09-22T20:00:26.881Z,8.50
2018-09-22T20:02:56.993Z,9.90
2018-09-22T20:05:27.092Z,9.27
2018-09-22T20:07:57.181Z,7.93
2018-09-22T20:10:27.296Z,7.20
2018-09-22T20:12:57.457Z,7.40
2018-09-22T20:15:27.563Z,9.67
2018-09-22T20:17:57.730Z,7.77
2018-09-22T20:20:27.804Z,7.77
2018-09-22T20:22:57.887Z,7.73
2018-09-22T20:25:28.007Z,7.80
2018-09-22T20:27:58.103Z,7.80
2018-09-22T20:30:28.274Z,8.13
2018-09-22T20:32:58.309Z,24.70
2018-09-22T20:35:28.445Z,101.27
2018-09-22T20:37:58.604Z,28.87
2018-09-22T20:40:28.792Z,14.43
2018-09-22T20:42:58.889Z,8.90
2018-09-22T20:45:29.013Z,9.70
2018-09-22T20:47:59.105Z,8.13
2018-09-22T20:50:29.237Z,8.77
2018-09-22T20:52:59.340Z,7.47
2018-09-22T20:55:29.675Z,8.50
2018-09-22T20:57:59.857Z,8.60
2018-09-22T21:00:29.955Z,9.07
2018-09-22T21:03:00.134Z,10.63
2018-09-22T21:05:30.229Z,9.30
2018-09-22T21:08:00.356Z,8.67
2018-09-22T21:10:30.454Z,8.73
2018-09-22T21:13:00.547Z,8.53
2018-09-22T21:15:30.661Z,8.80
2018-09-22T21:18:00.780Z,8.90
2018-09-22T21:20:30.929Z,8.93
2018-09-22T21:23:01.012Z,9.47
2018-09-22T21:25:31.120Z,9.07
2018-09-22T21:28:04.037Z,9.53
2018-09-22T21:30:34.150Z,8.97
2018-09-22T21:33:04.244Z,9.13
2018-09-22T21:35:34.357Z,7.93
2018-09-22T21:38:04.489Z,7.80
2018-09-22T21:40:34.608Z,7.23
2018-09-22T21:43:04.760Z,6.43
2018-09-22T21:45:34.862Z,7.07
2018-09-22T21:48:05.019Z,6.43
2018-09-22T21:50:35.104Z,5.70
2018-09-22T21:53:05.212Z,5.20
2018-09-22T21:55:35.296Z,5.27
2018-09-22T21:58:05.448Z,5.30
2018-09-22T22:00:35.632Z,5.50
2018-09-22T22:03:05.817Z,5.93
2018-09-22T22:05:35.924Z,6.40
2018-09-22T22:08:06.053Z,6.00
2018-09-22T22:10:36.197Z,6.13
2018-09-22T22:13:06.303Z,24.03
2018-09-22T22:15:36.416Z,23.00
2018-09-22T22:18:06.520Z,14.40
2018-09-22T22:20:37.204Z,22.17
2018-09-22T22:23:07.365Z,107.20
2018-09-22T22:25:37.460Z,27.50
2018-09-22T22:28:07.584Z,12.40
2018-09-22T22:30:37.744Z,10.10
2018-09-22T22:33:07.963Z,6.60
2018-09-22T22:35:38.068Z,10.40
2018-09-22T22:38:08.197Z,9.87
2018-09-22T22:40:38.320Z,7.53
2018-09-22T22:43:08.424Z,10.37
2018-09-22T22:45:38.581Z,7.10
2018-09-22T22:48:08.668Z,8.17
2018-09-22T22:50:38.793Z,7.43
2018-09-22T22:53:08.989Z,10.10
2018-09-22T22:55:39.132Z,8.87
2018-09-22T22:58:09.237Z,9.67
2018-09-22T23:00:39.342Z,8.03
2018-09-22T23:03:09.456Z,7.77
2018-09-22T23:05:39.548Z,8.23
2018-09-22T23:08:09.657Z,7.50
2018-09-22T23:10:39.769Z,7.67
2018-09-22T23:13:09.888Z,8.40
2018-09-22T23:15:40.052Z,7.70
2018-09-22T23:18:10.177Z,9.53
2018-09-22T23:20:40.282Z,8.93
2018-09-22T23:23:10.392Z,9.80
2018-09-22T23:25:40.481Z,9.10
2018-09-22T23:28:10.627Z,8.73
2018-09-22T23:30:40.729Z,8.17
2018-09-22T23:33:10.823Z,9.50
2018-09-22T23:35:40.928Z,10.17
2018-09-22T23:38:11.073Z,10.77
2018-09-22T23:40:41.177Z,9.90
2018-09-22T23:43:11.306Z,8.60
2018-09-22T23:45:41.425Z,9.00
2018-09-22T23:48:11.645Z,9.93
2018-09-22T23:50:41.732Z,8.57
2018-09-22T23:53:11.832Z,9.90
2018-09-22T23:55:41.941Z,9.33
2018-09-22T23:58:12.053Z,9.80
